createdAt,value
2017-08-31T00:00:41.649Z,39.29
2017-08-31T00:03:09.239Z,39.29
2017-08-31T00:05:36.897Z,39.27
2017-08-31T00:08:04.461Z,39.41
2017-08-31T00:10:31.990Z,39.43
2017-08-31T00:13:00.069Z,39.43
2017-08-31T00:15:27.945Z,39.44
2017-08-31T00:17:55.475Z,39.46
2017-08-31T00:20:23.052Z,39.45
2017-08-31T00:22:50.714Z,39.46
2017-08-31T00:25:18.305Z,39.50
2017-08-31T00:27:45.812Z,39.49
2017-08-31T00:30:20.872Z,39.55
2017-08-31T00:32:48.667Z,39.59
2017-08-31T00:35:16.213Z,39.57
2017-08-31T00:37:43.991Z,39.61
2017-08-31T00:40:11.588Z,39.61
2017-08-31T00:42:39.165Z,39.71
2017-08-31T00:45:06.733Z,39.78
2017-08-31T00:47:34.278Z,39.69
2017-08-31T00:50:02.126Z,39.72
2017-08-31T00:52:29.820Z,39.71
2017-08-31T00:54:57.556Z,39.70
2017-08-31T00:57:25.098Z,39.84
2017-08-31T00:59:59.617Z,39.74
2017-08-31T01:02:27.145Z,39.73
2017-08-31T01:04:54.685Z,39.59
2017-08-31T01:07:22.221Z,39.63
2017-08-31T01:09:50.030Z,39.65
2017-08-31T01:12:17.730Z,39.72
2017-08-31T01:14:45.236Z,39.76
2017-08-31T01:17:12.756Z,39.85
2017-08-31T01:19:42.514Z,39.81
2017-08-31T01:22:10.341Z,39.83
2017-08-31T01:24:37.919Z,39.88
2017-08-31T01:27:05.426Z,39.90
2017-08-31T01:29:32.995Z,39.96
2017-08-31T01:32:00.503Z,40.11
2017-08-31T01:34:28.159Z,40.12
2017-08-31T01:36:55.780Z,40.16
2017-08-31T01:39:23.283Z,40.28
2017-08-31T01:41:51.180Z,40.23
2017-08-31T01:44:18.777Z,40.27
2017-08-31T01:46:46.353Z,40.23
2017-08-31T01:49:13.956Z,40.24
2017-08-31T01:51:41.471Z,40.27
2017-08-31T01:54:09.006Z,40.21
2017-08-31T01:56:37.447Z,40.17
2017-08-31T01:59:04.948Z,40.16
2017-08-31T02:01:32.445Z,40.32
2017-08-31T02:04:00.051Z,40.32
2017-08-31T02:06:27.559Z,40.28
2017-08-31T02:08:55.100Z,40.45
2017-08-31T02:11:22.645Z,40.28
2017-08-31T02:13:50.340Z,40.29
2017-08-31T02:16:17.907Z,40.25
2017-08-31T02:18:45.497Z,40.35
2017-08-31T02:21:13.018Z,40.45
2017-08-31T02:23:40.702Z,40.46
2017-08-31T02:26:08.213Z,40.52
2017-08-31T02:28:35.761Z,40.41
2017-08-31T02:31:03.982Z,40.47
2017-08-31T02:33:31.497Z,40.43
2017-08-31T02:35:59.031Z,40.49
2017-08-31T02:38:26.607Z,40.44
2017-08-31T02:40:54.289Z,40.46
2017-08-31T02:43:21.804Z,40.47
2017-08-31T02:45:49.350Z,40.47
2017-08-31T02:48:16.954Z,40.72
2017-08-31T02:50:44.458Z,40.60
2017-08-31T02:53:11.956Z,40.60
2017-08-31T02:55:39.538Z,40.68
2017-08-31T02:58:07.289Z,40.60
2017-08-31T03:00:35.039Z,40.82
2017-08-31T03:03:02.549Z,40.80
2017-08-31T03:05:30.055Z,40.67
2017-08-31T03:07:57.631Z,40.79
2017-08-31T03:10:25.163Z,40.63
2017-08-31T03:12:52.662Z,40.67
2017-08-31T03:15:20.262Z,40.71
2017-08-31T03:17:48.102Z,40.69
2017-08-31T03:20:15.631Z,40.65
2017-08-31T03:22:44.068Z,40.65
2017-08-31T03:25:11.790Z,40.62
2017-08-31T03:27:39.431Z,40.71
2017-08-31T03:30:07.001Z,40.84
2017-08-31T03:32:34.544Z,40.79
2017-08-31T03:35:02.093Z,40.98
2017-08-31T03:37:29.614Z,40.88
2017-08-31T03:39:57.163Z,40.94
2017-08-31T03:42:24.733Z,40.88
2017-08-31T03:44:52.294Z,40.89
2017-08-31T03:47:19.868Z,40.96
2017-08-31T03:49:47.471Z,40.84
2017-08-31T03:52:15.108Z,40.83
2017-08-31T03:54:42.668Z,40.84
2017-08-31T03:57:10.221Z,40.95
2017-08-31T03:59:37.753Z,40.81
2017-08-31T04:02:05.384Z,40.91
2017-08-31T04:04:33.030Z,40.78
2017-08-31T04:07:00.753Z,40.80
2017-08-31T04:09:28.297Z,40.61
2017-08-31T04:11:55.861Z,40.60
2017-08-31T04:14:23.496Z,40.52
2017-08-31T04:16:51.153Z,40.26
2017-08-31T04:19:18.767Z,39.75
2017-08-31T04:21:46.424Z,39.19
2017-08-31T04:24:14.329Z,38.89
2017-08-31T04:26:41.837Z,39.03
2017-08-31T04:29:09.641Z,39.09
2017-08-31T04:31:37.251Z,39.17
2017-08-31T04:34:04.808Z,39.04
2017-08-31T04:36:32.359Z,38.82
2017-08-31T04:38:59.940Z,38.62
2017-08-31T04:41:27.503Z,38.41
2017-08-31T04:43:55.084Z,38.23
2017-08-31T04:46:22.607Z,38.11
2017-08-31T04:48:50.178Z,38.04
2017-08-31T04:51:17.761Z,38.01
2017-08-31T04:53:45.361Z,38.26
2017-08-31T04:56:12.936Z,38.32
2017-08-31T04:58:40.783Z,38.42
2017-08-31T05:01:08.584Z,38.56
2017-08-31T05:03:36.208Z,38.61
2017-08-31T05:06:04.136Z,38.47
2017-08-31T05:08:31.667Z,38.58
2017-08-31T05:11:01.567Z,38.67
2017-08-31T05:13:29.106Z,38.82
2017-08-31T05:15:56.710Z,38.84
2017-08-31T05:18:24.274Z,38.86
2017-08-31T05:20:51.976Z,38.80
2017-08-31T05:25:54.226Z,38.89
2017-08-31T05:28:22.275Z,39.01
2017-08-31T05:30:55.311Z,38.94
2017-08-31T05:33:22.933Z,38.98
2017-08-31T05:35:50.679Z,38.96
2017-08-31T05:38:18.642Z,39.01
2017-08-31T05:40:46.475Z,39.00
2017-08-31T05:43:14.368Z,39.00
2017-08-31T05:45:44.103Z,39.04
2017-08-31T05:48:13.567Z,39.03
2017-08-31T05:53:24.117Z,39.18
2017-08-31T05:56:07.855Z,39.14
2017-08-31T05:58:43.725Z,39.24
2017-08-31T06:01:11.773Z,39.14
2017-08-31T06:03:59.226Z,39.13
2017-08-31T06:06:48.307Z,39.09
2017-08-31T06:09:21.364Z,39.03
2017-08-31T06:11:56.213Z,39.00
2017-08-31T06:14:42.354Z,39.04
2017-08-31T06:17:29.159Z,39.02
2017-08-31T06:20:05.467Z,39.00
2017-08-31T06:22:38.910Z,39.21
2017-08-31T06:25:10.137Z,39.07
2017-08-31T06:31:05.968Z,39.27
2017-08-31T06:38:09.586Z,39.50
2017-08-31T07:11:02.763Z,39.69
2017-08-31T07:13:34.658Z,39.67
2017-08-31T07:20:33.684Z,39.80
2017-08-31T07:25:55.298Z,39.70
2017-08-31T07:31:44.356Z,39.82
2017-08-31T07:34:17.473Z,39.49
2017-08-31T07:36:48.336Z,39.71
2017-08-31T07:39:25.171Z,39.68
2017-08-31T07:41:57.701Z,39.39
2017-08-31T07:44:27.901Z,39.46
2017-08-31T07:47:02.753Z,39.47
2017-08-31T07:49:32.132Z,39.61
2017-08-31T07:52:01.529Z,39.25
2017-08-31T07:54:38.615Z,39.41
2017-08-31T07:57:11.513Z,39.55
2017-08-31T08:00:04.003Z,39.27
2017-08-31T08:02:35.176Z,39.47
2017-08-31T08:05:09.173Z,39.20
2017-08-31T08:11:04.868Z,39.36
2017-08-31T08:13:34.638Z,39.21
2017-08-31T08:16:16.515Z,39.47
2017-08-31T08:22:27.149Z,39.14
2017-08-31T08:25:02.293Z,39.32
2017-08-31T08:27:31.804Z,39.83
2017-08-31T08:30:24.158Z,39.35
2017-08-31T08:32:54.666Z,39.79
2017-08-31T08:35:29.712Z,39.56
2017-08-31T08:40:51.956Z,39.15
2017-08-31T08:43:20.241Z,39.49
2017-08-31T08:48:52.181Z,39.59
2017-08-31T08:51:27.211Z,39.62
2017-08-31T08:54:39.145Z,39.49
2017-08-31T08:57:11.750Z,39.40
2017-08-31T09:00:10.734Z,39.60
2017-08-31T09:02:47.020Z,39.36
2017-08-31T09:18:02.182Z,39.81
2017-08-31T09:20:34.690Z,39.77
2017-08-31T09:26:27.211Z,39.66
2017-08-31T09:28:55.834Z,39.51
2017-08-31T09:31:25.837Z,39.38
2017-08-31T09:37:03.205Z,39.65
2017-08-31T09:39:39.577Z,39.70
2017-08-31T09:42:10.062Z,39.58
2017-08-31T09:45:04.249Z,39.71
2017-08-31T09:47:37.728Z,39.65
2017-08-31T09:50:09.666Z,39.54
2017-08-31T09:56:30.825Z,39.42
2017-08-31T10:05:31.813Z,39.54
2017-08-31T10:14:22.175Z,39.82
2017-08-31T10:16:52.246Z,39.67
2017-08-31T10:19:24.614Z,39.63
2017-08-31T10:22:12.771Z,39.62
2017-08-31T10:38:27.178Z,39.45
2017-08-31T10:43:51.430Z,39.50
2017-08-31T10:46:21.099Z,39.34
2017-08-31T10:49:05.700Z,39.39
2017-08-31T10:51:35.066Z,39.40
2017-08-31T10:54:03.301Z,39.21
2017-08-31T10:56:31.231Z,39.27
2017-08-31T10:59:08.946Z,38.97
2017-08-31T11:01:41.294Z,39.00
2017-08-31T11:06:55.430Z,38.84
2017-08-31T11:22:38.418Z,38.87
2017-08-31T11:25:19.121Z,38.67
2017-08-31T11:41:35.741Z,38.64
2017-08-31T12:57:56.959Z,36.50
2017-08-31T13:24:21.946Z,35.62
2017-08-31T13:50:51.777Z,34.61
2017-08-31T14:17:30.568Z,33.27
2017-08-31T14:20:37.252Z,33.13
2017-08-31T14:41:23.761Z,31.90
2017-08-31T14:43:52.670Z,31.94
2017-08-31T14:46:27.276Z,31.94
2017-08-31T14:48:55.871Z,31.64
2017-08-31T14:51:31.093Z,31.62
2017-08-31T15:29:43.858Z,29.88
2017-08-31T15:32:11.965Z,29.65
2017-08-31T15:37:14.561Z,29.60
2017-08-31T15:39:50.180Z,29.50
2017-08-31T15:42:18.221Z,29.41
2017-08-31T15:44:46.335Z,29.21
2017-08-31T15:47:14.078Z,29.42
2017-08-31T15:49:41.743Z,29.29
2017-08-31T15:52:09.452Z,29.52
2017-08-31T15:54:37.080Z,29.29
2017-08-31T15:57:04.764Z,29.27
2017-08-31T15:59:32.355Z,29.39
2017-08-31T16:01:59.973Z,29.29
2017-08-31T16:04:27.767Z,29.40
2017-08-31T16:06:55.495Z,29.47
2017-08-31T16:09:23.161Z,29.49
2017-08-31T16:11:50.841Z,29.41
2017-08-31T16:14:18.566Z,29.71
2017-08-31T16:16:46.269Z,29.83
2017-08-31T16:19:13.958Z,30.16
2017-08-31T16:21:41.712Z,30.31
2017-08-31T16:24:09.342Z,30.38
2017-08-31T16:26:36.916Z,30.48
2017-08-31T16:29:04.459Z,30.60
2017-08-31T16:31:31.961Z,30.77
2017-08-31T16:33:59.506Z,30.81
2017-08-31T16:36:27.031Z,31.04
2017-08-31T16:38:54.672Z,31.20
2017-08-31T16:41:22.184Z,31.47
2017-08-31T16:43:49.703Z,31.49
2017-08-31T16:46:17.677Z,31.61
2017-08-31T16:48:45.939Z,31.81
2017-08-31T16:51:13.596Z,31.88
2017-08-31T16:53:41.251Z,31.97
2017-08-31T16:56:09.011Z,32.15
2017-08-31T16:58:36.642Z,32.24
2017-08-31T17:01:04.153Z,32.42
2017-08-31T17:03:31.746Z,32.41
2017-08-31T17:05:59.566Z,32.38
2017-08-31T17:08:27.107Z,32.37
2017-08-31T17:10:54.744Z,32.39
2017-08-31T17:13:22.278Z,32.35
2017-08-31T17:15:49.793Z,32.31
2017-08-31T17:18:17.512Z,32.33
2017-08-31T17:20:45.089Z,32.27
2017-08-31T17:23:12.609Z,32.21
2017-08-31T17:25:40.280Z,32.74
2017-08-31T17:30:41.801Z,32.21
2017-08-31T17:33:09.349Z,32.26
2017-08-31T17:35:36.881Z,32.61
2017-08-31T17:38:04.486Z,32.47
2017-08-31T17:40:32.002Z,32.31
2017-08-31T17:42:59.525Z,32.32
2017-08-31T17:45:27.074Z,32.30
2017-08-31T17:47:54.591Z,32.41
2017-08-31T17:50:22.154Z,32.78
2017-08-31T17:52:49.698Z,32.39
2017-08-31T17:55:17.341Z,32.50
2017-08-31T17:57:44.873Z,32.71
2017-08-31T18:00:12.400Z,32.65
2017-08-31T18:02:39.972Z,33.31
2017-08-31T18:05:07.621Z,32.97
2017-08-31T18:07:35.214Z,33.27
2017-08-31T18:10:10.396Z,33.61
2017-08-31T18:12:38.167Z,33.86
2017-08-31T18:15:05.787Z,34.40
2017-08-31T18:17:33.392Z,34.08
2017-08-31T18:20:00.953Z,34.51
2017-08-31T18:22:28.497Z,34.50
2017-08-31T18:24:56.049Z,34.57
2017-08-31T18:27:23.576Z,34.68
2017-08-31T18:29:51.083Z,34.57
2017-08-31T18:32:18.860Z,35.10
2017-08-31T18:34:46.525Z,34.86
2017-08-31T18:37:14.056Z,34.61
2017-08-31T18:39:41.626Z,34.74
2017-08-31T18:42:09.408Z,34.93
2017-08-31T18:44:47.174Z,34.98
2017-08-31T18:47:14.730Z,34.75
2017-08-31T18:49:49.886Z,35.33
2017-08-31T18:52:17.655Z,35.33
2017-08-31T18:54:45.173Z,35.08
2017-08-31T18:57:12.788Z,34.94
2017-08-31T18:59:40.395Z,35.72
2017-08-31T19:02:08.149Z,35.37
2017-08-31T19:04:35.721Z,35.58
2017-08-31T19:07:03.249Z,35.13
2017-08-31T19:09:30.864Z,35.38
2017-08-31T19:11:58.513Z,35.51
2017-08-31T19:14:26.025Z,35.65
2017-08-31T19:16:53.541Z,35.01
2017-08-31T19:19:21.113Z,35.35
2017-08-31T19:21:48.653Z,35.19
2017-08-31T19:24:16.275Z,35.27
2017-08-31T19:26:43.865Z,35.19
2017-08-31T19:29:11.368Z,35.27
2017-08-31T19:31:39.318Z,35.57
2017-08-31T19:34:06.854Z,35.38
2017-08-31T19:36:34.361Z,35.18
2017-08-31T19:39:01.926Z,35.71
2017-08-31T19:41:29.476Z,35.24
2017-08-31T19:43:57.044Z,35.20
2017-08-31T19:46:24.588Z,35.66
2017-08-31T19:48:52.131Z,35.20
2017-08-31T19:51:19.718Z,35.60
2017-08-31T19:53:47.299Z,35.42
2017-08-31T19:56:14.798Z,35.32
2017-08-31T19:58:42.428Z,35.28
2017-08-31T20:01:09.941Z,35.43
2017-08-31T20:03:37.490Z,35.53
2017-08-31T20:06:05.118Z,35.13
2017-08-31T20:08:32.692Z,35.79
2017-08-31T20:11:00.325Z,35.92
2017-08-31T20:13:27.880Z,35.54
2017-08-31T20:15:55.397Z,35.72
2017-08-31T20:18:22.961Z,35.48
2017-08-31T20:20:50.490Z,35.55
2017-08-31T20:23:20.641Z,35.63
2017-08-31T20:25:48.477Z,35.82
2017-08-31T20:28:16.055Z,35.43
2017-08-31T20:30:43.592Z,35.54
2017-08-31T20:33:11.168Z,35.45
2017-08-31T20:35:38.908Z,35.50
2017-08-31T20:38:06.460Z,35.57
2017-08-31T20:40:33.954Z,36.03
2017-08-31T20:43:01.525Z,35.78
2017-08-31T20:45:29.050Z,36.08
2017-08-31T20:47:56.550Z,36.67
2017-08-31T20:50:24.222Z,36.30
2017-08-31T20:52:51.725Z,36.50
2017-08-31T20:55:19.226Z,35.62
2017-08-31T20:57:46.901Z,35.94
2017-08-31T21:00:14.455Z,36.62
2017-08-31T21:02:41.965Z,36.44
2017-08-31T21:05:10.925Z,36.05
2017-08-31T21:07:38.544Z,36.26
2017-08-31T21:10:06.173Z,36.12
2017-08-31T21:12:33.717Z,36.31
2017-08-31T21:15:01.255Z,36.77
2017-08-31T21:17:28.774Z,36.14
2017-08-31T21:19:56.363Z,36.00
2017-08-31T21:22:23.918Z,35.99
2017-08-31T21:24:51.502Z,36.17
2017-08-31T21:27:19.056Z,36.14
2017-08-31T21:29:46.648Z,36.12
2017-08-31T21:32:14.377Z,36.24
2017-08-31T21:34:41.943Z,36.61
2017-08-31T21:37:09.614Z,36.46
2017-08-31T21:39:37.111Z,36.50
2017-08-31T21:42:04.733Z,36.66
2017-08-31T21:44:32.392Z,36.74
2017-08-31T21:47:00.089Z,36.69
2017-08-31T21:49:27.660Z,36.75
2017-08-31T21:51:55.328Z,36.90
2017-08-31T21:54:23.032Z,36.92
2017-08-31T21:56:51.061Z,36.95
2017-08-31T21:59:18.748Z,37.03
2017-08-31T22:01:46.530Z,37.06
2017-08-31T22:04:14.231Z,37.10
2017-08-31T22:06:41.772Z,37.24
2017-08-31T22:09:09.428Z,37.30
2017-08-31T22:11:36.945Z,37.18
2017-08-31T22:14:04.529Z,37.36
2017-08-31T22:16:32.149Z,37.60
2017-08-31T22:18:59.749Z,37.39
2017-08-31T22:21:27.302Z,37.39
2017-08-31T22:23:54.950Z,37.46
2017-08-31T22:26:22.451Z,37.50
2017-08-31T22:28:49.984Z,37.50
2017-08-31T22:31:17.571Z,37.70
2017-08-31T22:33:45.136Z,37.60
2017-08-31T22:36:12.691Z,37.63
2017-08-31T22:38:40.205Z,37.67
2017-08-31T22:41:07.803Z,37.83
2017-08-31T22:43:35.301Z,37.70
2017-08-31T22:46:03.713Z,37.69
2017-08-31T22:48:31.289Z,37.74
2017-08-31T22:50:58.930Z,37.76
2017-08-31T22:53:26.446Z,37.82
2017-08-31T22:55:53.954Z,37.87
2017-08-31T22:58:21.508Z,37.93
2017-08-31T23:00:49.096Z,37.95
2017-08-31T23:03:16.621Z,37.98
2017-08-31T23:05:44.167Z,38.06
2017-08-31T23:08:11.711Z,38.18
2017-08-31T23:10:39.265Z,38.23
2017-08-31T23:13:06.818Z,38.20
2017-08-31T23:15:34.325Z,38.25
2017-08-31T23:18:01.869Z,38.49
2017-08-31T23:20:29.410Z,38.30
2017-08-31T23:22:56.957Z,38.26
2017-08-31T23:25:24.510Z,38.39
2017-08-31T23:27:52.067Z,38.48
2017-08-31T23:30:19.700Z,38.53
2017-08-31T23:32:47.262Z,38.44
2017-08-31T23:35:14.777Z,38.77
2017-08-31T23:37:42.357Z,38.81
2017-08-31T23:40:09.943Z,38.53
2017-08-31T23:42:37.458Z,38.51
2017-08-31T23:45:04.958Z,38.71
2017-08-31T23:47:32.504Z,38.68
2017-08-31T23:50:00.003Z,38.66
2017-08-31T23:52:27.505Z,38.64
2017-08-31T23:54:55.086Z,38.68
2017-08-31T23:57:22.597Z,38.71
2017-08-31T23:59:50.413Z,38.77
